PAKTPAJN

Guest
Details From PAKT - KETCHIKAN INTL
To PAJN - Juneau Intl
Flight Number -
Tags decoded
Created
Modified
Stats Distance 212 nm / 392 km
Max Altitude 0 ft / 0 m
Waypoints 6
Social Downloads 14
Likes 0
Share VATSIM

Download

Looking for another format? Having issues loading an existing format? Contact us
Advertisement - Login to hide

Notes

Requested: PAKT GESTI J502 HOODS PAJN

Route

PAKT GESTI J502 HOODS PAJN

ID Type Via Altitude Latitude Longitude Leg Dist Tot Dist Heading (true) Name
O PAKT APT - 0 ft / 0 m 55.35554˚ -131.71374˚ - 0 nm - KETCHIKAN INTL
GESTI FIX - 0 ft / 0 m 55.43263˚ -131.96400˚ 9 nm 9 nm 299° / 298° -
DOOZI FIX J502 (AWY-HI) 0 ft / 0 m 55.63254˚ -132.17465˚ 13 nm 23 nm 329° / 329° -
LVD DME J502 (AWY-HI) 0 ft / 0 m 56.46771˚ -133.08311˚ 58 nm 82 nm 329° / 328° LEVEL ISLAND VOR-DME
HOODS FIX J502 (AWY-HI) 0 ft / 0 m 57.74293˚ -134.68157˚ 92 nm 175 nm 326° / 325° -
O PAJN APT - 0 ft / 0 m 58.35496˚ -134.57628˚ 36 nm 211 nm 5° / 5° Juneau Intl

Altitude Profile

Advertisement - Login to hide

Weather


0- 5 10 15 20 25 30 35+ Temperature / ° C

Clouds and Precipitation
Forecast for 2017-12-13 00:00 UTC. Updated 38 minutes ago

Ground ~20,000 ft ~40,000 ft Winds

PAKT

Details ICAO PAKT (KTN)
Name KETCHIKAN INTL
Region USA (Alaska)
Timezone Unknown (UTC+0.0)
Stats Elevation 88 ft / 27 m (AMSL)
Location 55.355545° -131.713737°
Runways 1
Magnetic Variation 18.535° E

METAR

PAKT 122251Z VRB03KT 8SM -RA FEW016 SCT044 OVC050 08/07 A3030

Decode

TAF

TAF PAKT 122331Z 1300/1324 15010KT 5SM -RA BR BKN015 OVC025 FM131400 15012KT 5SM BR SCT015 BKN050 FM131900 15010KT P6SM SCT015 BKN050 AMD LTD TO CLD VIS AND WIND 1306/1315

Decode

Departure Runways

ID Width Length Bearing (true) Bearing (mag) Surface Threshold Offset Overrun Length
11 150 ft / 46 m 7,485 ft / 2,281 m 135.66° 117.13° Asphalt 0 ft / 0 m 200 ft / 61 m
29 150 ft / 46 m 7,485 ft / 2,281 m 315.68° 297.15° Asphalt 0 ft / 0 m 100 ft / 30 m

PAJN

Details ICAO PAJN (JNU)
Name Juneau Intl
Region USA (Alaska)
Timezone America/Juneau (UTC-9.0)
Stats Elevation 21 ft / 6 m (AMSL)
Location 58.354964° -134.576278°
Runways 1
Magnetic Variation 19.150° E

METAR

PAJN 122253Z 10009KT 10SM FEW004 BKN049 BKN095 OVC200 07/07 A3023

Decode

TAF

PAJN 122327Z 1300/1324 08007KT P6SM BCFG SCT004 BKN050 OVC060 FM130900 10010KT P6SM -RA OVC040 FM132100 11015KT P6SM -RA SCT025 OVC035

Decode

Destination Runways

ID Width Length Bearing (true) Bearing (mag) Surface Threshold Offset Overrun Length
08 150 ft / 46 m 8,430 ft / 2,570 m 104.87° 85.72° Asphalt 0 ft / 0 m 450 ft / 137 m
26 150 ft / 46 m 8,430 ft / 2,570 m 284.90° 265.75° Asphalt 0 ft / 0 m 225 ft / 69 m

Approach Navaids

Runway Type Ident Frequency Range Bearing (true) Bearing (mag) Slope Elevation
08 Localiser IJDL 109.90 MHz 18 nm / 33 km 84.92° 65.77° - 21 ft / 6 m (AMSL)
08 DME IJDL 109.90 MHz 18 nm / 33 km - - - 175 ft / 53 m (AMSL)

Popular Alternatives